Time;durP1;ratioP1;P1;durP2;ratioP2;P2;SDS_P1;SDS_P2;PMS_P1;PMS_P2;Temp;Humidity;BMP_temperature;BMP_pressure;BME280_temperature;BME280_humidity;BME280_pressure;Samples;Min_cycle;Max_cycle;Signal;HPM_P1;HPM_P2
2023/11/29 00:01:06;;;;;;;5.77;4.50;;;-0.60;99.90;;;;;;5086340;28;20214;-65
2023/11/29 00:03:33;;;;;;;4.63;4.27;;;-0.70;99.90;;;;;;5086173;28;20214;-65
2023/11/29 00:06:03;;;;;;;4.63;4.23;;;-0.70;99.90;;;;;;5085782;28;20297;-64
2023/11/29 00:08:30;;;;;;;5.60;4.87;;;-0.70;99.90;;;;;;5072999;28;20232;-64
2023/11/29 00:10:57;;;;;;;5.63;5.03;;;-0.70;99.90;;;;;;5065952;28;20373;-64
2023/11/29 00:13:24;;;;;;;5.13;4.73;;;-0.60;99.90;;;;;;5065871;28;20302;-64
2023/11/29 00:15:51;;;;;;;4.83;4.43;;;-0.60;99.90;;;;;;5078424;28;20195;-64
2023/11/29 00:18:18;;;;;;;5.83;4.73;;;-0.60;99.90;;;;;;5087108;28;20293;-64
2023/11/29 00:20:45;;;;;;;5.07;4.57;;;-0.70;99.90;;;;;;5097292;28;20195;-64
2023/11/29 00:23:13;;;;;;;5.60;4.70;;;-0.70;99.90;;;;;;5093957;28;20228;-64
2023/11/29 00:25:40;;;;;;;5.00;4.60;;;-0.70;99.90;;;;;;5091301;28;20206;-64
2023/11/29 00:28:07;;;;;;;5.83;4.73;;;-0.70;99.90;;;;;;5088572;28;20297;-63
2023/11/29 00:30:34;;;;;;;5.60;5.10;;;-0.70;99.90;;;;;;5085782;28;20240;-63
2023/11/29 00:33:01;;;;;;;5.40;4.90;;;-0.70;99.90;;;;;;5085486;28;20309;-63
2023/11/29 00:35:28;;;;;;;5.07;4.67;;;-0.70;99.90;;;;;;5085883;28;20207;-63
2023/11/29 00:37:54;;;;;;;5.80;5.17;;;-0.70;99.90;;;;;;5085480;28;20217;-64
2023/11/29 00:40:23;;;;;;;7.13;5.50;;;-0.70;99.90;;;;;;5085755;28;20216;-64
2023/11/29 00:42:49;;;;;;;5.63;5.13;;;-0.70;99.90;;;;;;5084975;28;20223;-63
2023/11/29 00:45:16;;;;;;;5.50;5.00;;;-0.70;99.90;;;;;;5085327;28;20300;-63
2023/11/29 00:47:43;;;;;;;6.03;5.53;;;-0.70;99.90;;;;;;5085183;28;20294;-63
2023/11/29 00:50:11;;;;;;;6.17;5.57;;;-0.80;99.90;;;;;;5085533;28;20206;-64
2023/11/29 00:52:38;;;;;;;7.87;6.10;;;-0.70;99.90;;;;;;5084759;28;20238;-63
2023/11/29 00:55:06;;;;;;;5.80;5.30;;;-0.80;99.90;;;;;;5085193;28;20201;-64
2023/11/29 00:57:34;;;;;;;6.07;5.47;;;-0.80;99.90;;;;;;5085392;28;20304;-64
2023/11/29 01:00:01;;;;;;;5.53;5.03;;;-0.80;99.90;;;;;;5085240;28;21038;-64
2023/11/29 01:02:28;;;;;;;6.10;5.50;;;-0.80;99.90;;;;;;5084960;28;20691;-63
2023/11/29 01:04:55;;;;;;;6.03;5.43;;;-0.80;99.90;;;;;;5077480;28;20209;-63
2023/11/29 01:07:22;;;;;;;6.10;5.57;;;-1.00;99.90;;;;;;5084517;28;20793;-64
2023/11/29 01:09:49;;;;;;;5.40;5.00;;;-0.90;99.90;;;;;;5084860;28;20286;-63
2023/11/29 01:12:16;;;;;;;5.90;5.40;;;-0.80;99.90;;;;;;5085123;28;20325;-64
2023/11/29 01:14:44;;;;;;;6.40;5.67;;;-0.80;99.90;;;;;;5084372;28;20733;-64
2023/11/29 01:17:11;;;;;;;5.60;5.07;;;-0.80;99.90;;;;;;5085104;28;20290;-64
2023/11/29 01:19:38;;;;;;;5.63;5.10;;;-0.80;99.90;;;;;;5085066;28;20214;-63
2023/11/29 01:22:05;;;;;;;6.03;5.47;;;-0.80;99.90;;;;;;5084669;28;20305;-63
2023/11/29 01:24:32;;;;;;;6.10;5.50;;;-0.80;99.90;;;;;;5084648;28;20900;-64
2023/11/29 01:26:59;;;;;;;6.53;5.93;;;-0.70;99.90;;;;;;5084834;28;20857;-63
2023/11/29 01:29:26;;;;;;;6.03;5.43;;;-0.70;99.90;;;;;;5085260;28;20322;-64
2023/11/29 01:31:54;;;;;;;5.83;5.30;;;-0.70;99.90;;;;;;5088848;28;20242;-64
2023/11/29 01:34:21;;;;;;;5.97;5.30;;;-0.70;99.90;;;;;;5088490;28;20630;-63
2023/11/29 01:36:48;;;;;;;5.90;5.20;;;-0.90;99.90;;;;;;5088075;28;20687;-63
2023/11/29 01:39:14;;;;;;;5.57;5.07;;;-0.90;99.90;;;;;;5088651;28;20297;-63
2023/11/29 01:41:42;;;;;;;5.63;5.13;;;-0.90;99.90;;;;;;5088929;28;20221;-63
2023/11/29 01:44:09;;;;;;;6.07;5.37;;;-1.00;99.90;;;;;;5088531;28;20333;-63
2023/11/29 01:46:36;;;;;;;6.30;5.33;;;-1.10;99.90;;;;;;5088016;28;20203;-63
2023/11/29 01:49:06;;;;;;;6.03;5.43;;;-1.10;99.90;;;;;;5088547;28;20336;-63
2023/11/29 01:51:33;;;;;;;6.70;5.47;;;-1.00;99.90;;;;;;5087994;28;20603;-63
2023/11/29 01:54:01;;;;;;;6.17;5.10;;;-1.10;99.90;;;;;;5088008;28;20912;-63
2023/11/29 01:56:28;;;;;;;5.80;5.30;;;-1.10;99.90;;;;;;5067997;28;20210;-64
2023/11/29 01:58:55;;;;;;;5.70;5.20;;;-1.10;99.90;;;;;;5067659;28;20246;-63
2023/11/29 02:01:22;;;;;;;6.00;5.40;;;-1.10;99.90;;;;;;5083259;28;20218;-63
2023/11/29 02:03:49;;;;;;;5.60;5.10;;;-1.20;99.90;;;;;;5087961;28;20298;-64
2023/11/29 02:06:18;;;;;;;5.60;5.10;;;-1.20;99.90;;;;;;5088003;28;20243;-63
2023/11/29 02:08:45;;;;;;;6.23;4.93;;;-1.10;99.90;;;;;;5087720;28;20237;-63
2023/11/29 02:11:14;;;;;;;5.07;4.57;;;-1.00;99.90;;;;;;5087949;28;20301;-64
2023/11/29 02:13:41;;;;;;;5.80;5.20;;;-1.00;99.90;;;;;;5088134;28;20252;-63
2023/11/29 02:16:08;;;;;;;5.40;4.90;;;-1.10;99.90;;;;;;5081265;28;20207;-63
2023/11/29 02:18:35;;;;;;;5.03;4.53;;;-1.10;99.90;;;;;;5088014;28;20305;-63
2023/11/29 02:21:02;;;;;;;5.80;4.97;;;-1.10;99.90;;;;;;5087751;28;20222;-63
2023/11/29 02:23:37;;;;;;;5.20;4.80;;;-1.10;99.90;;;;;;5087628;28;20311;-63
2023/11/29 02:26:06;;;;;;;5.43;4.80;;;-1.20;99.90;;;;;;5088291;28;20291;-63
2023/11/29 02:28:34;;;;;;;5.50;5.00;;;-1.20;99.90;;;;;;5087873;28;20206;-64
2023/11/29 02:31:01;;;;;;;5.37;4.87;;;-1.30;99.90;;;;;;5088142;28;20244;-63
2023/11/29 02:33:28;;;;;;;6.03;5.17;;;-1.20;99.90;;;;;;5087343;28;20709;-63
2023/11/29 02:35:54;;;;;;;5.53;5.03;;;-1.20;99.90;;;;;;5087913;28;20299;-63
2023/11/29 02:38:22;;;;;;;5.87;5.17;;;-1.10;99.90;;;;;;5087545;28;20293;-63
2023/11/29 02:40:49;;;;;;;5.50;5.00;;;-1.10;99.90;;;;;;5087431;28;20209;-63
2023/11/29 02:43:17;;;;;;;6.77;5.10;;;-1.20;99.90;;;;;;5087031;28;20321;-64
2023/11/29 02:45:44;;;;;;;4.83;4.43;;;-1.30;99.90;;;;;;5087120;28;20217;-64
2023/11/29 02:48:11;;;;;;;5.17;4.67;;;-1.20;99.90;;;;;;5087705;28;20294;-64
2023/11/29 02:50:38;;;;;;;4.70;4.30;;;-1.30;99.90;;;;;;5087186;28;20206;-64
2023/11/29 02:53:06;;;;;;;6.67;4.40;;;-1.40;99.90;;;;;;5086982;28;20803;-64
2023/11/29 02:55:33;;;;;;;5.03;4.53;;;-1.30;99.90;;;;;;5086814;28;20756;-63
2023/11/29 02:58:00;;;;;;;4.93;4.43;;;-1.30;99.90;;;;;;5068213;28;20305;-63
2023/11/29 03:00:29;;;;;;;4.10;3.80;;;-1.30;99.90;;;;;;5067060;28;20202;-64
2023/11/29 03:02:58;;;;;;;5.10;4.60;;;-1.30;99.90;;;;;;5076301;28;20206;-64
2023/11/29 03:05:24;;;;;;;4.37;4.07;;;-1.20;99.90;;;;;;5086530;28;20290;-64
2023/11/29 03:07:51;;;;;;;4.73;4.33;;;-1.20;99.90;;;;;;5086296;28;20737;-64
2023/11/29 03:10:18;;;;;;;5.30;4.57;;;-1.20;99.90;;;;;;5087046;28;20298;-63
2023/11/29 03:12:45;;;;;;;4.60;4.10;;;-1.10;99.90;;;;;;5086929;28;20471;-64
2023/11/29 03:15:15;;;;;;;5.27;4.80;;;-1.10;99.90;;;;;;5086481;28;20290;-64
2023/11/29 03:17:43;;;;;;;4.23;3.93;;;-1.00;99.90;;;;;;5086870;28;20207;-64
2023/11/29 03:20:10;;;;;;;4.80;3.80;;;-1.00;99.90;;;;;;5086508;28;20301;-65
2023/11/29 03:22:37;;;;;;;4.20;3.87;;;-0.90;99.90;;;;;;5086535;28;20217;-65
2023/11/29 03:25:04;;;;;;;3.90;3.60;;;-0.90;99.90;;;;;;5087023;28;20318;-64
2023/11/29 03:27:31;;;;;;;4.10;3.70;;;-1.00;99.90;;;;;;5086359;28;20265;-64
2023/11/29 03:29:58;;;;;;;4.40;4.00;;;-1.00;99.90;;;;;;5087032;28;20296;-63
2023/11/29 03:32:26;;;;;;;4.27;3.77;;;-1.00;99.90;;;;;;5084810;28;20248;-63
2023/11/29 03:34:55;;;;;;;4.03;3.73;;;-1.00;99.90;;;;;;5085183;28;20213;-63
2023/11/29 03:37:21;;;;;;;3.90;3.60;;;-1.00;99.90;;;;;;5085038;28;20229;-63
2023/11/29 03:39:48;;;;;;;4.20;3.90;;;-1.00;99.90;;;;;;5085112;28;20293;-63
2023/11/29 03:42:15;;;;;;;3.63;3.30;;;-1.00;99.90;;;;;;5084790;28;20319;-64
2023/11/29 03:44:42;;;;;;;3.63;3.33;;;-1.00;99.90;;;;;;5084672;28;20950;-63
2023/11/29 03:47:09;;;;;;;3.77;3.50;;;-1.00;99.90;;;;;;5085230;28;20791;-64
2023/11/29 03:49:36;;;;;;;4.20;3.77;;;-1.00;99.90;;;;;;5084876;28;20207;-64
2023/11/29 03:52:04;;;;;;;3.93;3.63;;;-1.00;99.90;;;;;;5084263;28;20230;-64
2023/11/29 03:54:31;;;;;;;3.70;3.40;;;-1.00;99.90;;;;;;5084117;28;20284;-63
2023/11/29 03:56:58;;;;;;;3.57;3.30;;;-1.00;99.90;;;;;;5089695;28;20358;-63
2023/11/29 03:59:25;;;;;;;3.50;3.20;;;-1.00;99.90;;;;;;5105719;28;20292;-63
2023/11/29 04:01:52;;;;;;;4.10;3.80;;;-1.00;99.90;;;;;;5105834;28;20308;-63
2023/11/29 04:04:19;;;;;;;3.80;3.50;;;-0.90;99.90;;;;;;5105824;28;20315;-63
2023/11/29 04:06:47;;;;;;;3.47;3.27;;;-0.90;99.90;;;;;;5105683;28;20299;-63
2023/11/29 04:09:15;;;;;;;4.47;3.97;;;-1.00;99.90;;;;;;5105425;28;20353;-63
2023/11/29 04:11:45;;;;;;;3.97;3.57;;;-0.90;99.90;;;;;;5106451;28;20250;-63
2023/11/29 04:14:12;;;;;;;4.40;4.10;;;-0.90;99.90;;;;;;5106507;28;20639;-64
2023/11/29 04:16:39;;;;;;;3.50;3.30;;;-0.90;99.90;;;;;;5088035;28;20599;-64
2023/11/29 04:19:05;;;;;;;3.97;3.67;;;-1.00;99.90;;;;;;5085992;28;20202;-63
2023/11/29 04:21:33;;;;;;;4.07;3.67;;;-0.90;99.90;;;;;;5085883;28;20584;-65
2023/11/29 04:24:01;;;;;;;3.80;3.50;;;-0.90;99.90;;;;;;5085754;28;20218;-63
2023/11/29 04:26:32;;;;;;;3.80;3.50;;;-1.00;99.90;;;;;;5085630;28;20727;-63
2023/11/29 04:28:59;;;;;;;3.33;3.13;;;-1.00;99.90;;;;;;5085740;28;20822;-63
2023/11/29 04:31:26;;;;;;;3.73;3.43;;;-1.00;99.90;;;;;;5086431;28;20300;-63
2023/11/29 04:33:53;;;;;;;4.23;3.83;;;-0.90;99.90;;;;;;5086097;28;20314;-63
2023/11/29 04:36:20;;;;;;;3.90;3.60;;;-0.90;99.90;;;;;;5085932;28;20300;-63
2023/11/29 04:38:48;;;;;;;3.97;3.67;;;-1.00;99.90;;;;;;5085336;28;20345;-63
2023/11/29 04:41:15;;;;;;;4.10;3.80;;;-1.00;99.90;;;;;;5085894;28;20300;-63
2023/11/29 04:43:44;;;;;;;3.83;3.53;;;-0.90;99.90;;;;;;5085561;28;20230;-63
2023/11/29 04:46:11;;;;;;;3.90;3.50;;;-1.00;99.90;;;;;;5085692;28;20330;-63
2023/11/29 04:48:38;;;;;;;4.67;3.80;;;-1.00;99.90;;;;;;5084863;28;20220;-64
2023/11/29 04:51:06;;;;;;;3.73;3.47;;;-1.00;99.90;;;;;;5085589;28;20309;-63
2023/11/29 04:53:33;;;;;;;3.80;3.50;;;-1.00;99.90;;;;;;5085230;28;20238;-63
2023/11/29 04:56:00;;;;;;;4.23;3.83;;;-1.00;99.90;;;;;;5085358;28;20637;-63
2023/11/29 04:58:27;;;;;;;4.03;3.73;;;-0.90;99.90;;;;;;5085225;28;20742;-63
2023/11/29 05:00:55;;;;;;;3.83;3.53;;;-0.90;99.90;;;;;;5085359;28;20736;-63
2023/11/29 05:03:22;;;;;;;3.93;3.63;;;-0.90;99.90;;;;;;5085686;28;20285;-63
2023/11/29 05:05:49;;;;;;;3.70;3.40;;;-0.90;99.90;;;;;;5087855;28;20334;-64
2023/11/29 05:08:16;;;;;;;3.70;3.40;;;-0.90;99.90;;;;;;5089096;28;20710;-63
2023/11/29 05:10:43;;;;;;;4.50;3.87;;;-0.90;99.90;;;;;;5089669;28;20205;-63
2023/11/29 05:13:10;;;;;;;4.07;3.73;;;-0.90;99.90;;;;;;5089429;28;20230;-63
2023/11/29 05:15:37;;;;;;;4.17;3.83;;;-0.90;99.90;;;;;;5089359;28;20206;-63
2023/11/29 05:18:06;;;;;;;3.80;3.50;;;-1.00;99.90;;;;;;5089640;28;20262;-63
2023/11/29 05:20:33;;;;;;;3.50;3.30;;;-1.00;99.90;;;;;;5089634;28;20237;-63
2023/11/29 05:23:00;;;;;;;3.77;3.47;;;-1.00;99.90;;;;;;5099479;28;20251;-63
2023/11/29 05:25:27;;;;;;;3.97;3.67;;;-1.20;99.90;;;;;;5110014;28;20283;-63
2023/11/29 05:27:54;;;;;;;3.53;3.33;;;-1.10;99.90;;;;;;5109959;28;20241;-63
2023/11/29 05:30:22;;;;;;;3.87;3.50;;;-1.20;99.90;;;;;;5109609;28;20206;-63
2023/11/29 05:32:49;;;;;;;4.37;3.97;;;-1.30;99.90;;;;;;5109591;28;20237;-63
2023/11/29 05:35:17;;;;;;;4.10;3.80;;;-1.30;99.90;;;;;;5109502;28;20249;-63
2023/11/29 05:37:44;;;;;;;4.43;4.13;;;-1.20;99.90;;;;;;5109369;28;20209;-63
2023/11/29 05:40:12;;;;;;;4.00;3.70;;;-1.20;99.90;;;;;;5109440;28;20216;-63
2023/11/29 05:42:40;;;;;;;4.37;4.00;;;-1.30;99.90;;;;;;5109078;28;20233;-63
2023/11/29 05:45:08;;;;;;;4.53;4.17;;;-1.20;99.90;;;;;;5104224;28;20206;-63
2023/11/29 05:47:35;;;;;;;4.87;4.37;;;-1.10;99.90;;;;;;5089149;28;20301;-63
2023/11/29 05:50:02;;;;;;;5.23;4.73;;;-1.10;99.90;;;;;;5089001;28;20300;-63
2023/11/29 05:52:31;;;;;;;5.10;4.60;;;-1.10;99.90;;;;;;5088115;28;20576;-63
2023/11/29 05:55:00;;;;;;;4.30;4.00;;;-1.00;99.90;;;;;;5088645;28;20297;-63
2023/11/29 05:57:27;;;;;;;4.80;4.40;;;-1.10;99.90;;;;;;5086916;28;20603;-63
2023/11/29 05:59:56;;;;;;;4.43;4.10;;;-1.10;99.90;;;;;;5088556;28;20206;-64
2023/11/29 06:02:23;;;;;;;4.80;4.40;;;-1.20;99.90;;;;;;5088634;28;20206;-63
2023/11/29 06:04:50;;;;;;;4.30;3.93;;;-1.30;99.90;;;;;;5088753;28;20206;-63
2023/11/29 06:07:17;;;;;;;4.40;4.03;;;-1.20;99.90;;;;;;5088323;28;20222;-64
2023/11/29 06:09:45;;;;;;;4.90;4.50;;;-1.20;99.90;;;;;;5088400;28;20304;-63
2023/11/29 06:12:12;;;;;;;4.10;3.80;;;-1.10;99.90;;;;;;5088373;28;20302;-63
2023/11/29 06:14:39;;;;;;;4.70;4.30;;;-1.20;99.90;;;;;;5088080;28;20238;-63
2023/11/29 06:17:06;;;;;;;4.73;4.30;;;-1.10;99.90;;;;;;5088564;28;20216;-63
2023/11/29 06:19:33;;;;;;;4.80;4.40;;;-1.10;99.90;;;;;;5088455;28;20566;-63
2023/11/29 06:22:00;;;;;;;4.77;4.37;;;-1.10;99.90;;;;;;5088274;28;20233;-63
2023/11/29 06:24:31;;;;;;;4.93;4.43;;;-1.20;99.90;;;;;;5088276;28;20901;-63
2023/11/29 06:27:00;;;;;;;4.80;4.40;;;-1.20;99.90;;;;;;5088085;28;20602;-63
2023/11/29 06:29:27;;;;;;;4.90;4.50;;;-1.10;99.90;;;;;;5087790;28;20940;-63
2023/11/29 06:31:53;;;;;;;4.97;4.57;;;-1.10;99.90;;;;;;5088068;28;20300;-63
2023/11/29 06:34:20;;;;;;;5.20;4.80;;;-1.20;99.90;;;;;;5087888;28;20228;-63
2023/11/29 06:36:48;;;;;;;5.57;5.07;;;-1.20;99.90;;;;;;5087529;28;20720;-64
2023/11/29 06:39:17;;;;;;;5.13;4.60;;;-1.10;99.90;;;;;;5087760;28;20328;-63
2023/11/29 06:41:44;;;;;;;4.97;4.57;;;-1.10;99.90;;;;;;5087185;28;20324;-63
2023/11/29 06:44:13;;;;;;;5.00;4.57;;;-1.10;99.90;;;;;;5087953;28;20293;-63
2023/11/29 06:46:40;;;;;;;5.20;4.77;;;-1.10;99.90;;;;;;5087611;28;20575;-63
2023/11/29 06:49:06;;;;;;;4.33;4.03;;;-1.10;99.90;;;;;;5081064;28;20210;-63
2023/11/29 06:51:34;;;;;;;4.90;4.50;;;-1.10;99.90;;;;;;5067516;28;20233;-64
2023/11/29 06:54:01;;;;;;;6.40;4.83;;;-1.10;99.90;;;;;;5085525;28;20330;-63
2023/11/29 06:56:31;;;;;;;5.37;4.87;;;-1.20;99.90;;;;;;5087648;28;20210;-63
2023/11/29 06:58:58;;;;;;;4.97;4.57;;;-1.20;99.90;;;;;;5087973;28;20316;-63
2023/11/29 07:01:27;;;;;;;5.47;5.03;;;-1.10;99.90;;;;;;5087540;28;20348;-63
2023/11/29 07:03:53;;;;;;;5.73;5.20;;;-1.10;99.90;;;;;;5087027;28;20587;-63
2023/11/29 07:06:22;;;;;;;5.40;4.90;;;-1.10;99.90;;;;;;5087215;28;20241;-63
2023/11/29 07:08:49;;;;;;;5.83;5.20;;;-1.10;99.90;;;;;;5086879;28;20234;-63
2023/11/29 07:11:16;;;;;;;5.13;4.63;;;-1.00;99.90;;;;;;5087407;28;20238;-63
2023/11/29 07:13:43;;;;;;;5.57;5.07;;;-1.00;99.90;;;;;;5087201;28;20248;-63
2023/11/29 07:16:10;;;;;;;5.80;5.20;;;-1.00;99.90;;;;;;5087204;28;20312;-63
2023/11/29 07:18:38;;;;;;;6.87;5.40;;;-1.00;99.90;;;;;;5087189;28;20296;-63
2023/11/29 07:21:06;;;;;;;5.30;4.90;;;-1.00;99.90;;;;;;5087208;28;20637;-63
2023/11/29 07:23:34;;;;;;;5.73;5.23;;;-0.90;99.90;;;;;;5087008;28;20522;-63
2023/11/29 07:26:01;;;;;;;5.97;5.37;;;-0.90;99.90;;;;;;5087114;28;20209;-63
2023/11/29 07:28:27;;;;;;;5.77;5.27;;;-0.90;99.90;;;;;;5086510;28;20308;-64
2023/11/29 07:30:54;;;;;;;6.10;5.17;;;-1.00;99.90;;;;;;5087124;28;20219;-64
2023/11/29 07:33:21;;;;;;;5.50;5.00;;;-1.00;99.90;;;;;;5086872;28;20231;-63
2023/11/29 07:35:49;;;;;;;5.43;4.93;;;-1.00;99.90;;;;;;5086932;28;20249;-63
2023/11/29 07:38:16;;;;;;;5.97;5.40;;;-0.90;99.90;;;;;;5086559;28;20295;-64
2023/11/29 07:40:43;;;;;;;6.00;5.37;;;-0.90;99.90;;;;;;5086943;28;21068;-63
2023/11/29 07:43:11;;;;;;;5.27;4.77;;;-0.90;99.90;;;;;;5086646;28;20314;-63
2023/11/29 07:45:38;;;;;;;6.33;5.27;;;-0.80;99.90;;;;;;5086435;28;20611;-63
2023/11/29 07:48:06;;;;;;;5.77;5.10;;;-0.80;99.90;;;;;;5086404;28;20673;-64
2023/11/29 07:50:33;;;;;;;5.80;5.17;;;-0.80;99.90;;;;;;5086282;28;20199;-64
2023/11/29 07:53:01;;;;;;;5.80;5.33;;;-0.80;99.90;;;;;;5086131;28;20246;-63
2023/11/29 07:55:29;;;;;;;5.97;5.47;;;-0.80;99.90;;;;;;5086602;28;20212;-63
2023/11/29 07:57:56;;;;;;;19.63;15.23;;;-0.70;99.90;;;;;;5086516;28;20299;-64
2023/11/29 08:00:23;;;;;;;5.80;5.30;;;-0.80;99.90;;;;;;5086476;28;20210;-63
2023/11/29 08:02:49;;;;;;;5.53;5.07;;;-0.80;99.90;;;;;;5086109;28;20324;-63
2023/11/29 08:05:16;;;;;;;6.80;6.10;;;-0.80;99.90;;;;;;5086124;28;20855;-63
2023/11/29 08:07:43;;;;;;;6.40;5.53;;;-0.80;99.90;;;;;;5085679;28;20237;-63
2023/11/29 08:10:12;;;;;;;5.73;5.23;;;-0.80;99.90;;;;;;5085981;28;20768;-63
2023/11/29 08:12:39;;;;;;;6.23;5.63;;;-0.90;99.90;;;;;;5085850;28;20214;-63
2023/11/29 08:15:07;;;;;;;6.13;5.53;;;-0.90;99.90;;;;;;5085728;28;20344;-63
2023/11/29 08:17:33;;;;;;;10.47;5.70;;;-0.90;99.90;;;;;;5086276;28;20210;-63
2023/11/29 08:20:00;;;;;;;6.73;5.80;;;-0.90;99.90;;;;;;5085862;28;20687;-63
2023/11/29 08:22:27;;;;;;;6.23;5.63;;;-0.90;99.90;;;;;;5085760;28;20695;-63
2023/11/29 08:24:54;;;;;;;7.13;5.77;;;-0.90;99.90;;;;;;5086146;28;20225;-63
2023/11/29 08:27:23;;;;;;;6.00;5.40;;;-0.90;99.90;;;;;;5085968;28;20700;-63
2023/11/29 08:29:50;;;;;;;7.20;5.93;;;-0.90;99.90;;;;;;5085438;28;20641;-63
2023/11/29 08:32:17;;;;;;;6.60;6.00;;;-0.90;99.90;;;;;;5086169;28;20670;-63
2023/11/29 08:34:45;;;;;;;6.97;6.13;;;-0.90;99.90;;;;;;5085272;28;20848;-63
2023/11/29 08:37:12;;;;;;;6.63;6.03;;;-0.90;99.90;;;;;;5085731;28;20301;-64
2023/11/29 08:39:39;;;;;;;6.87;6.17;;;-0.80;99.90;;;;;;5084553;28;20206;-63
2023/11/29 08:42:06;;;;;;;6.30;5.70;;;-0.80;99.90;;;;;;5074856;28;20266;-64
2023/11/29 08:44:35;;;;;;;6.57;5.97;;;-0.70;99.90;;;;;;5065662;28;20268;-63
2023/11/29 08:47:03;;;;;;;7.80;6.83;;;-0.80;99.90;;;;;;5065495;28;20210;-64
2023/11/29 08:49:30;;;;;;;6.87;6.17;;;-0.70;99.90;;;;;;5065359;28;20234;-63
2023/11/29 08:51:57;;;;;;;7.27;6.57;;;-0.70;99.90;;;;;;5065701;28;20211;-63
2023/11/29 08:54:23;;;;;;;9.03;6.80;;;-0.70;99.90;;;;;;5065155;28;20326;-64
2023/11/29 08:56:50;;;;;;;6.87;6.10;;;-0.80;99.90;;;;;;5065266;28;20306;-63
2023/11/29 08:59:17;;;;;;;6.17;5.67;;;-0.80;99.90;;;;;;5065476;28;20211;-63
2023/11/29 09:01:46;;;;;;;6.80;6.10;;;-0.70;99.90;;;;;;5083435;28;20594;-63
2023/11/29 09:04:13;;;;;;;8.03;6.40;;;-0.70;99.90;;;;;;5085737;28;20756;-63
2023/11/29 09:06:40;;;;;;;7.07;6.37;;;-0.70;99.90;;;;;;5084992;28;20325;-63
2023/11/29 09:09:08;;;;;;;7.33;6.43;;;-0.60;99.90;;;;;;5085026;28;20609;-63
2023/11/29 09:11:35;;;;;;;7.87;6.17;;;-0.70;99.90;;;;;;5085107;28;20242;-63
2023/11/29 09:14:02;;;;;;;7.13;6.43;;;-0.70;99.90;;;;;;5085298;28;20262;-64
2023/11/29 09:16:30;;;;;;;10.20;6.30;;;-0.60;99.90;;;;;;5084885;28;20202;-65
2023/11/29 09:18:58;;;;;;;6.87;6.20;;;-0.60;99.90;;;;;;5085485;28;20217;-63
2023/11/29 09:21:26;;;;;;;6.23;5.63;;;-0.50;99.90;;;;;;5085172;28;20211;-63
2023/11/29 09:23:53;;;;;;;7.17;6.47;;;-0.40;99.90;;;;;;5084573;28;20214;-64
2023/11/29 09:26:20;;;;;;;7.10;6.40;;;-0.40;99.90;;;;;;5085167;28;20210;-64
2023/11/29 09:28:47;;;;;;;6.80;5.83;;;-0.40;99.90;;;;;;5085169;28;20294;-64
2023/11/29 09:31:14;;;;;;;7.10;6.47;;;-0.30;99.90;;;;;;5085192;28;20302;-63
2023/11/29 09:33:42;;;;;;;7.33;6.53;;;-0.30;99.90;;;;;;5085052;28;20214;-63
2023/11/29 09:36:11;;;;;;;7.47;6.03;;;-0.30;99.90;;;;;;5085397;28;20210;-64
2023/11/29 09:38:39;;;;;;;6.73;6.10;;;-0.30;99.90;;;;;;5071730;28;20215;-63
2023/11/29 09:41:07;;;;;;;7.17;6.47;;;-0.30;99.90;;;;;;5064823;28;20204;-64
2023/11/29 09:43:35;;;;;;;6.33;5.73;;;-0.30;99.90;;;;;;5064837;28;20207;-64
2023/11/29 09:46:02;;;;;;;7.87;6.90;;;-0.30;99.90;;;;;;5065109;28;20210;-64
2023/11/29 09:48:29;;;;;;;6.10;5.50;;;-0.40;99.90;;;;;;5064812;28;20250;-63
2023/11/29 09:50:57;;;;;;;6.70;6.03;;;-0.40;99.90;;;;;;5065638;28;20580;-64
2023/11/29 09:53:26;;;;;;;6.83;6.13;;;-0.30;99.90;;;;;;5081214;28;20726;-63
2023/11/29 09:55:54;;;;;;;6.20;5.40;;;-0.30;99.90;;;;;;5088350;28;20266;-63
2023/11/29 09:58:21;;;;;;;6.60;6.00;;;-0.30;99.90;;;;;;5088384;28;20661;-63
2023/11/29 10:00:48;;;;;;;6.13;5.63;;;-0.30;99.90;;;;;;5088296;28;20234;-63
2023/11/29 10:03:16;;;;;;;6.47;5.20;;;-0.30;99.90;;;;;;5088410;28;20203;-63
2023/11/29 10:05:47;;;;;;;6.77;6.00;;;-0.30;99.90;;;;;;5088293;28;20297;-63
2023/11/29 10:08:16;;;;;;;6.67;6.07;;;-0.30;99.90;;;;;;5088413;28;20266;-64
2023/11/29 10:10:44;;;;;;;5.97;5.40;;;-0.30;99.90;;;;;;5088359;28;20721;-63
2023/11/29 10:13:11;;;;;;;8.33;6.70;;;-0.30;99.90;;;;;;5088803;28;20264;-63
2023/11/29 10:15:38;;;;;;;6.77;6.17;;;-0.40;99.90;;;;;;5087755;28;20233;-63
2023/11/29 10:18:05;;;;;;;7.10;6.27;;;-0.40;99.90;;;;;;5088647;28;20210;-63
2023/11/29 10:20:32;;;;;;;6.33;5.70;;;-0.40;99.90;;;;;;5088088;28;20255;-63
2023/11/29 10:22:59;;;;;;;8.47;6.67;;;-0.40;99.90;;;;;;5088023;28;20253;-64
2023/11/29 10:25:26;;;;;;;7.50;6.77;;;-0.30;99.90;;;;;;5088411;28;20213;-64
2023/11/29 10:27:54;;;;;;;8.23;6.63;;;-0.30;99.90;;;;;;5088353;28;20217;-63
2023/11/29 10:30:21;;;;;;;7.50;6.77;;;-0.30;99.90;;;;;;5088340;28;20580;-63
2023/11/29 10:32:49;;;;;;;8.77;6.63;;;-0.30;99.90;;;;;;5088310;28;20216;-64
2023/11/29 10:35:19;;;;;;;10.17;7.03;;;-0.20;99.90;;;;;;5088096;28;20235;-64
2023/11/29 10:37:56;;;;;;;7.60;6.80;;;-0.10;99.90;;;;;;5087765;28;20199;-64
2023/11/29 10:40:23;;;;;;;7.73;6.80;;;-0.20;99.90;;;;;;5087849;28;20198;-64
2023/11/29 10:42:53;;;;;;;8.23;6.73;;;-0.10;99.90;;;;;;5087563;28;20317;-64
2023/11/29 10:45:22;;;;;;;7.00;6.40;;;0.00;99.90;;;;;;5087848;28;20309;-64
2023/11/29 10:47:54;;;;;;;7.53;6.70;;;0.00;99.90;;;;;;5087448;28;20860;-63
2023/11/29 10:50:24;;;;;;;8.50;6.80;;;0.10;99.90;;;;;;5087987;28;20673;-64
2023/11/29 10:52:51;;;;;;;7.70;6.90;;;0.10;99.90;;;;;;5078535;28;20213;-64
2023/11/29 10:55:19;;;;;;;8.87;6.80;;;0.10;99.90;;;;;;5067461;28;20231;-64
2023/11/29 10:57:53;;;;;;;7.00;6.40;;;0.10;99.90;;;;;;5066852;28;20725;-64
2023/11/29 11:00:25;;;;;;;7.00;6.30;;;0.10;99.90;;;;;;5067257;28;20260;-63
2023/11/29 11:02:52;;;;;;;6.83;6.20;;;0.10;99.90;;;;;;5066670;28;20192;-63
2023/11/29 11:05:23;;;;;;;7.17;6.47;;;0.10;99.90;;;;;;5067014;28;20300;-64
2023/11/29 11:07:51;;;;;;;7.13;6.43;;;0.00;99.90;;;;;;5067162;28;20266;-64
2023/11/29 11:10:23;;;;;;;9.00;6.40;;;0.00;99.90;;;;;;5067189;28;20242;-64
2023/11/29 11:12:51;;;;;;;7.43;6.63;;;0.00;99.90;;;;;;5067082;28;20195;-64
2023/11/29 11:15:22;;;;;;;7.80;6.50;;;0.00;99.90;;;;;;5073283;28;20262;-64
2023/11/29 11:18:24;;;;;;;6.80;6.20;;;0.10;99.90;;;;;;5086909;28;20202;-63
2023/11/29 11:20:55;;;;;;;7.23;6.53;;;0.00;99.90;;;;;;5087028;28;20319;-63
2023/11/29 11:23:24;;;;;;;6.67;6.07;;;0.00;99.90;;;;;;5086833;28;20231;-63
2023/11/29 11:25:56;;;;;;;6.93;6.30;;;0.00;99.90;;;;;;5086871;28;20199;-63
2023/11/29 11:28:28;;;;;;;7.90;6.83;;;0.10;99.90;;;;;;5086708;28;20206;-64
2023/11/29 11:30:56;;;;;;;7.03;6.33;;;0.10;99.90;;;;;;5086996;28;20219;-64
2023/11/29 11:33:24;;;;;;;6.73;6.13;;;0.20;99.90;;;;;;5086972;28;20226;-64
2023/11/29 11:35:51;;;;;;;7.27;6.37;;;0.20;99.90;;;;;;5086687;28;20361;-64
2023/11/29 11:38:19;;;;;;;7.13;6.43;;;0.20;99.90;;;;;;5086216;28;20668;-64
2023/11/29 11:40:47;;;;;;;8.97;7.37;;;0.20;99.90;;;;;;5086447;28;20297;-64
2023/11/29 11:43:16;;;;;;;8.23;7.37;;;0.30;99.90;;;;;;5086734;28;20726;-64
2023/11/29 11:45:46;;;;;;;8.23;7.40;;;0.30;99.90;;;;;;5086421;28;20289;-64
2023/11/29 11:48:13;;;;;;;7.97;7.17;;;0.30;99.90;;;;;;5086412;28;20235;-64
2023/11/29 11:50:41;;;;;;;7.50;6.70;;;0.30;99.90;;;;;;5086246;28;20705;-64
2023/11/29 11:53:08;;;;;;;7.10;6.40;;;0.30;99.90;;;;;;5086341;28;20290;-64
2023/11/29 11:55:40;;;;;;;7.43;6.77;;;0.30;99.90;;;;;;5086476;28;20261;-64
2023/11/29 11:58:09;;;;;;;7.43;6.73;;;0.30;99.90;;;;;;5086418;28;20206;-64
2023/11/29 12:00:36;;;;;;;7.90;7.10;;;0.30;99.90;;;;;;5086320;28;20567;-64
2023/11/29 12:03:04;;;;;;;7.63;6.93;;;0.40;99.90;;;;;;5086075;28;20218;-64
2023/11/29 12:05:31;;;;;;;7.50;6.80;;;0.30;99.90;;;;;;5086060;28;20206;-64
2023/11/29 12:08:00;;;;;;;8.33;6.97;;;0.30;99.90;;;;;;5085739;28;20317;-64
2023/11/29 12:10:27;;;;;;;9.03;7.63;;;0.30;99.90;;;;;;5086220;28;20214;-64
2023/11/29 12:12:55;;;;;;;10.80;8.57;;;0.30;99.90;;;;;;5085779;28;20206;-64
2023/11/29 12:15:22;;;;;;;8.50;7.60;;;0.30;99.90;;;;;;5085436;28;20226;-63
2023/11/29 12:17:49;;;;;;;8.43;7.07;;;0.30;99.90;;;;;;5086112;28;20244;-63
2023/11/29 12:20:16;;;;;;;8.20;7.27;;;0.30;99.90;;;;;;5085613;28;20206;-63
2023/11/29 12:22:45;;;;;;;8.70;7.20;;;0.30;99.90;;;;;;5085803;28;20293;-63
2023/11/29 12:25:19;;;;;;;8.27;7.47;;;0.30;99.90;;;;;;5085670;28;20213;-63
2023/11/29 12:27:47;;;;;;;9.43;7.43;;;0.40;99.90;;;;;;5086008;28;20194;-63
2023/11/29 12:30:14;;;;;;;10.07;8.60;;;0.30;99.90;;;;;;5085851;28;20270;-64
2023/11/29 12:32:41;;;;;;;9.57;8.30;;;0.30;99.90;;;;;;5086241;28;20330;-63
2023/11/29 12:35:10;;;;;;;8.43;7.63;;;0.40;99.90;;;;;;5085859;28;20660;-64
2023/11/29 12:37:43;;;;;;;8.67;6.73;;;0.40;99.90;;;;;;5085985;28;20214;-64
2023/11/29 12:40:15;;;;;;;8.43;7.53;;;0.40;99.90;;;;;;5086134;28;20199;-63
2023/11/29 12:42:44;;;;;;;8.70;7.80;;;0.40;99.90;;;;;;5085557;28;20223;-64
2023/11/29 12:45:12;;;;;;;8.00;7.20;;;0.40;99.90;;;;;;5085832;28;20221;-63
2023/11/29 12:47:39;;;;;;;8.90;8.00;;;0.30;99.90;;;;;;5085762;28;20234;-64
2023/11/29 12:50:07;;;;;;;8.60;7.70;;;0.30;99.90;;;;;;5085925;28;20551;-64